Terminal Aerodrome Forecast
Issued by NWS

Current Version | Previous Version | Text Only | Print | Product List | Glossary On
Versions: 1 2 3 4 5 6 7 8 9 10 11 12
000
FTUS42 TJSJ 231100
TAFJBQ
TAF
TJBQ 231138Z 2312/2412 13006KT P6SM FEW030
     FM231300 08018G26KT P6SM FEW030
     FM232200 10010KT P6SM FEW025
      AMD NOT SKED 2402/2411=

USA.gov is the U.S. government's official web portal to all federal, state and local government web resources and services.